Time;durP1;ratioP1;P1;durP2;ratioP2;P2;SDS_P1;SDS_P2;PMS_P1;PMS_P2;Temp;Humidity;BMP_temperature;BMP_pressure;BME280_temperature;BME280_humidity;BME280_pressure;Samples;Min_cycle;Max_cycle;Signal;HPM_P1;HPM_P2
2022/05/01 00:00:13;;;;;;;;;8.25;8.25;;;;;13.71;54.80;102159.88;5075604;27;45372;-78
2022/05/01 00:02:38;;;;;;;;;11.25;8.75;;;;;13.65;55.03;102154.38;5083053;27;45263;-78
2022/05/01 00:05:04;;;;;;;;;8.00;8.00;;;;;13.59;55.66;102153.22;5080857;27;45275;-78
2022/05/01 00:07:32;;;;;;;;;10.50;10.50;;;;;13.60;55.39;102152.41;5076481;27;46144;-78
2022/05/01 00:09:58;;;;;;;;;13.00;9.25;;;;;13.62;55.35;102160.28;5075494;28;45833;-77
2022/05/01 00:12:23;;;;;;;;;13.00;10.50;;;;;13.51;55.78;102151.00;5074446;28;45378;-78
2022/05/01 00:14:49;;;;;;;;;13.50;9.00;;;;;13.48;55.90;102145.63;5076196;27;45491;-78
2022/05/01 00:17:14;;;;;;;;;12.25;11.25;;;;;13.48;55.96;102149.13;5075318;27;45917;-78
2022/05/01 00:19:40;;;;;;;;;11.75;10.00;;;;;13.46;56.47;102142.94;5075734;27;45369;-77
2022/05/01 00:22:06;;;;;;;;;8.50;8.50;;;;;13.40;56.63;102143.50;5073913;28;45270;-77
2022/05/01 00:24:32;;;;;;;;;9.50;9.50;;;;;13.34;56.73;102137.94;5076330;27;45761;-76
2022/05/01 00:27:00;;;;;;;;;13.50;11.25;;;;;13.33;56.50;102146.56;5075723;28;45269;-78
2022/05/01 00:29:25;;;;;;;;;10.25;10.25;;;;;13.27;56.88;102136.69;5075028;27;45357;-77
2022/05/01 00:31:51;;;;;;;;;7.00;7.00;;;;;13.32;57.22;102142.16;5078370;27;45543;-77
2022/05/01 00:37:00;;;;;;;;;7.75;7.75;;;;;13.24;57.09;102131.31;5078796;28;45313;-77
2022/05/01 00:39:26;;;;;;;;;13.75;10.50;;;;;13.21;57.64;102138.97;5078440;27;45405;-77
2022/05/01 00:41:52;;;;;;;;;10.25;9.00;;;;;13.15;57.63;102142.13;5079120;27;45374;-76
2022/05/01 00:44:19;;;;;;;;;10.75;10.75;;;;;13.07;57.53;102135.59;5078880;27;45338;-77
2022/05/01 00:46:50;;;;;;;;;12.25;10.00;;;;;13.08;58.13;102137.38;5079625;27;45255;-78
2022/05/01 00:49:24;;;;;;;;;10.50;9.75;;;;;12.88;57.93;102105.09;5082312;27;45271;-78
2022/05/01 00:51:58;;;;;;;;;8.75;8.50;;;;;12.96;57.94;102124.59;5082386;27;45409;-77
2022/05/01 00:54:32;;;;;;;;;10.50;10.25;;;;;13.02;58.15;102134.44;5079848;27;45279;-77
2022/05/01 00:57:01;;;;;;;;;12.75;9.00;;;;;13.04;58.17;102127.63;5079114;27;45153;-78
2022/05/01 00:59:29;;;;;;;;;10.00;9.00;;;;;12.96;58.59;102109.00;5079262;27;45983;-78
2022/05/01 01:01:55;;;;;;;;;10.75;10.00;;;;;13.06;58.29;102122.50;5079802;27;45208;-78
2022/05/01 01:04:21;;;;;;;;;9.75;9.75;;;;;13.00;58.33;102112.66;5077418;28;45285;-77
2022/05/01 01:06:48;;;;;;;;;8.50;8.50;;;;;12.98;58.69;102115.19;5079259;27;46378;-78
2022/05/01 01:09:15;;;;;;;;;13.25;10.25;;;;;12.95;58.99;102117.59;5078378;27;45263;-75
2022/05/01 01:11:42;;;;;;;;;10.75;10.00;;;;;12.93;59.49;102121.81;5078774;27;45414;-76
2022/05/01 01:14:08;;;;;;;;;9.75;9.75;;;;;12.87;59.18;102108.50;5076922;27;45466;-77
2022/05/01 01:16:38;;;;;;;;;10.50;8.50;;;;;12.89;59.15;102116.38;5078367;27;45393;-77
2022/05/01 01:19:09;;;;;;;;;11.75;9.00;;;;;12.89;59.78;102118.97;5078608;28;45439;-78
2022/05/01 01:21:35;;;;;;;;;8.00;8.00;;;;;12.91;59.47;102119.94;5078267;27;45301;-77
2022/05/01 01:24:06;;;;;;;;;8.50;8.50;;;;;12.84;59.63;102123.91;5076853;27;45630;-78
2022/05/01 01:26:34;;;;;;;;;11.75;10.25;;;;;12.69;59.97;102108.34;5078105;28;46311;-76
2022/05/01 01:29:00;;;;;;;;;10.50;9.00;;;;;12.76;60.19;102122.56;5078802;27;45263;-77
2022/05/01 01:31:42;;;;;;;;;14.25;11.00;;;;;12.67;60.25;102115.16;5077288;28;45342;-78
2022/05/01 01:34:17;;;;;;;;;12.75;11.00;;;;;12.70;60.86;102115.31;5085844;27;45461;-78
2022/05/01 01:36:46;;;;;;;;;10.25;8.50;;;;;12.66;60.86;102124.66;5082778;27;45377;-78
2022/05/01 01:39:12;;;;;;;;;11.75;10.50;;;;;12.63;61.50;102113.19;5079200;27;45346;-78
2022/05/01 01:41:41;;;;;;;;;9.75;7.75;;;;;12.58;61.26;102115.50;5078910;27;45284;-78
2022/05/01 01:44:08;;;;;;;;;10.50;10.50;;;;;12.52;61.55;102109.97;5076855;27;45569;-78
2022/05/01 01:46:34;;;;;;;;;13.50;11.75;;;;;12.48;61.65;102106.31;5077896;27;45436;-78
2022/05/01 01:48:59;;;;;;;;;6.50;5.75;;;;;12.44;62.31;102106.03;5078717;27;45458;-77
2022/05/01 01:51:25;;;;;;;;;10.50;10.00;;;;;12.40;62.63;102110.16;5076410;28;45230;-78
2022/05/01 01:53:52;;;;;;;;;14.00;10.25;;;;;12.44;62.84;102121.63;5078450;27;45695;-77
2022/05/01 01:56:18;;;;;;;;;6.50;6.50;;;;;12.44;62.77;102116.44;5077777;27;46221;-77
2022/05/01 01:58:44;;;;;;;;;11.00;11.00;;;;;12.40;62.84;102102.38;5076733;27;45386;-78
2022/05/01 02:01:10;;;;;;;;;10.00;9.50;;;;;12.43;63.06;102109.44;5077791;27;45437;-77
2022/05/01 02:03:37;;;;;;;;;13.00;9.75;;;;;12.36;63.03;102092.59;5078136;27;45427;-76
2022/05/01 02:06:09;;;;;;;;;8.50;8.50;;;;;12.38;63.19;102098.78;5076291;28;47083;-78
2022/05/01 02:08:34;;;;;;;;;12.00;11.00;;;;;12.37;63.23;102091.78;5077393;27;45399;-77
2022/05/01 02:11:02;;;;;;;;;12.75;10.50;;;;;12.35;63.40;102096.00;5077867;27;45295;-77
2022/05/01 02:13:28;;;;;;;;;14.25;13.00;;;;;12.39;63.50;102101.47;5076590;28;45510;-77
2022/05/01 02:15:54;;;;;;;;;12.25;12.25;;;;;12.39;63.44;102101.47;5077427;27;45474;-78
2022/05/01 02:18:19;;;;;;;;;12.75;11.25;;;;;12.37;63.41;102104.78;5081840;27;45368;-78
2022/05/01 02:21:45;;;;;;;;;14.50;11.50;;;;;12.31;63.23;102087.13;5080992;28;45394;-78
2022/05/01 02:23:40;;;;;;;;;13.00;12.00;;;;;12.38;63.72;102099.66;5068555;27;45316;-78
2022/05/01 02:26:06;;;;;;;;;13.25;12.00;;;;;12.35;63.86;102108.97;5077496;28;47258;-77
2022/05/01 02:28:32;;;;;;;;;15.00;12.00;;;;;12.26;63.54;102085.97;5077644;27;45747;-75
2022/05/01 02:30:57;;;;;;;;;13.00;12.50;;;;;12.29;64.17;102093.94;5077260;27;45346;-78
2022/05/01 02:33:24;;;;;;;;;14.50;11.25;;;;;12.20;64.55;102075.22;5076984;27;45327;-78
2022/05/01 02:35:50;;;;;;;;;14.25;12.25;;;;;12.31;64.34;102086.25;5075178;28;47086;-78
2022/05/01 02:38:16;;;;;;;;;12.00;11.75;;;;;12.16;64.71;102063.78;5076587;27;45440;-76
2022/05/01 02:40:42;;;;;;;;;14.75;11.50;;;;;12.30;64.33;102103.53;5075700;27;45355;-77
2022/05/01 02:43:08;;;;;;;;;12.25;10.75;;;;;12.25;64.98;102080.69;5077103;27;45481;-77
2022/05/01 02:45:34;;;;;;;;;14.75;12.25;;;;;12.28;65.04;102089.53;5076569;27;45941;-77
2022/05/01 02:47:59;;;;;;;;;14.25;12.25;;;;;12.24;64.83;102079.81;5076917;27;45366;-77
2022/05/01 02:50:25;;;;;;;;;14.50;11.75;;;;;12.22;65.27;102089.19;5075089;27;45378;-76
2022/05/01 02:52:51;;;;;;;;;16.50;14.00;;;;;12.11;65.69;102065.19;5075066;27;45271;-77
2022/05/01 02:55:17;;;;;;;;;13.75;13.00;;;;;12.20;65.71;102080.41;5076411;27;46016;-78
2022/05/01 02:57:43;;;;;;;;;14.00;12.25;;;;;12.16;65.81;102074.16;5076592;27;45946;-77
2022/05/01 03:00:16;;;;;;;;;17.00;13.25;;;;;12.16;65.75;102079.34;5076568;28;45326;-78
2022/05/01 03:02:44;;;;;;;;;14.25;13.00;;;;;12.18;65.87;102071.63;5077599;27;45401;-77
2022/05/01 03:05:10;;;;;;;;;14.50;12.25;;;;;12.17;66.39;102072.44;5083599;27;45652;-75
2022/05/01 03:07:35;;;;;;;;;17.00;14.00;;;;;12.13;66.27;102070.50;5078526;27;45412;-76
2022/05/01 03:10:01;;;;;;;;;14.75;14.75;;;;;12.06;66.58;102067.50;5079482;27;45464;-76
2022/05/01 03:12:27;;;;;;;;;17.00;12.50;;;;;12.01;66.61;102062.84;5077266;27;45623;-77
2022/05/01 03:14:52;;;;;;;;;15.75;15.25;;;;;11.97;67.04;102058.28;5076235;27;46095;-77
2022/05/01 03:17:18;;;;;;;;;15.50;12.75;;;;;12.07;67.24;102069.31;5075891;28;45445;-76
2022/05/01 03:22:28;;;;;;;;;12.50;12.50;;;;;12.02;67.51;102062.97;5076659;28;45348;-76
2022/05/01 03:24:53;;;;;;;;;18.50;15.25;;;;;12.09;67.71;102056.44;5075871;27;45810;-76
2022/05/01 03:27:19;;;;;;;;;15.50;14.00;;;;;12.11;66.80;102054.81;5075967;27;45472;-76
2022/05/01 03:30:15;;;;;;;;;21.00;16.00;;;;;12.12;67.68;102053.13;5076183;28;45314;-76
2022/05/01 03:32:33;;;;;;;;;15.75;15.75;;;;;12.01;67.40;102039.50;5076230;28;45281;-75
2022/05/01 03:34:58;;;;;;;;;16.50;14.75;;;;;12.09;67.88;102061.63;5076077;28;45533;-76
2022/05/01 03:37:24;;;;;;;;;15.75;12.25;;;;;12.08;68.04;102058.13;5075774;28;45317;-78
2022/05/01 03:39:49;;;;;;;;;15.50;14.75;;;;;11.98;68.02;102037.63;5074727;28;45225;-78
2022/05/01 03:42:15;;;;;;;;;16.25;14.25;;;;;12.05;68.51;102050.16;5074604;27;45419;-79
2022/05/01 03:44:40;;;;;;;;;19.50;15.50;;;;;12.06;67.74;102049.34;5075759;27;46294;-77
2022/05/01 03:47:06;;;;;;;;;15.25;15.25;;;;;12.07;68.33;102050.25;5078378;27;45398;-78
2022/05/01 03:49:32;;;;;;;;;15.50;13.25;;;;;11.96;68.59;102041.78;5083784;28;45165;-76
2022/05/01 03:51:57;;;;;;;;;17.75;16.50;;;;;11.99;68.70;102049.81;5078029;28;45284;-77
2022/05/01 03:54:24;;;;;;;;;15.00;13.00;;;;;12.01;68.17;102058.59;5076191;27;45927;-78
2022/05/01 03:56:49;;;;;;;;;20.00;15.25;;;;;11.94;68.65;102053.78;5075900;27;45417;-77
2022/05/01 03:59:15;;;;;;;;;15.25;13.50;;;;;11.89;69.17;102044.84;5075522;27;45240;-76
2022/05/01 04:01:42;;;;;;;;;16.50;15.00;;;;;11.94;68.76;102053.78;5076115;27;45511;-77
2022/05/01 04:04:08;;;;;;;;;14.75;14.75;;;;;11.92;68.91;102063.19;5075116;27;46340;-77
2022/05/01 04:06:34;;;;;;;;;17.25;16.50;;;;;11.86;69.43;102061.13;5078231;27;45341;-75
2022/05/01 04:09:00;;;;;;;;;16.00;15.25;;;;;11.79;69.81;102055.47;5079548;27;45329;-77
2022/05/01 04:11:26;;;;;;;;;13.25;13.25;;;;;11.75;69.88;102046.63;5079085;27;45343;-77
2022/05/01 04:13:51;;;;;;;;;18.50;18.00;;;;;11.73;69.93;102050.81;5077676;28;47009;-77
2022/05/01 04:16:17;;;;;;;;;18.00;14.00;;;;;11.68;70.66;102047.03;5078503;27;45405;-78
2022/05/01 04:18:42;;;;;;;;;18.75;18.00;;;;;11.65;70.69;102032.19;5078867;27;45337;-79
2022/05/01 04:21:10;;;;;;;;;15.00;13.25;;;;;11.74;70.21;102037.03;5078828;28;45524;-78
2022/05/01 04:23:38;;;;;;;;;20.25;16.00;;;;;11.66;70.44;102033.97;5078830;27;45422;-77
2022/05/01 04:26:04;;;;;;;;;17.75;17.75;;;;;11.69;70.48;102036.78;5077345;27;45737;-77
2022/05/01 04:28:30;;;;;;;;;22.50;20.50;;;;;11.68;71.23;102047.94;5082807;27;45337;-77
2022/05/01 04:30:55;;;;;;;;;19.75;17.25;;;;;11.68;70.76;102053.13;5083705;27;45370;-77
2022/05/01 04:33:21;;;;;;;;;20.50;18.25;;;;;11.67;71.11;102048.75;5082491;27;45429;-77
2022/05/01 04:35:48;;;;;;;;;22.25;19.75;;;;;11.63;72.07;102051.94;5083829;27;45456;-77
2022/05/01 04:38:23;;;;;;;;;19.25;18.00;;;;;11.59;72.25;102040.50;5078236;28;45280;-77
2022/05/01 04:40:58;;;;;;;;;21.75;20.00;;;;;11.64;72.22;102040.78;5079090;27;45319;-77
2022/05/01 04:43:25;;;;;;;;;19.25;18.75;;;;;11.74;71.83;102047.41;5078425;27;45342;-77
2022/05/01 04:45:53;;;;;;;;;19.50;18.75;;;;;11.80;72.02;102045.19;5078685;27;46022;-77
2022/05/01 04:48:20;;;;;;;;;18.50;16.50;;;;;11.84;71.78;102039.38;5075809;27;45339;-77
2022/05/01 04:50:47;;;;;;;;;26.00;21.25;;;;;11.82;71.32;102047.88;5078354;27;45499;-77
2022/05/01 04:53:14;;;;;;;;;18.50;17.25;;;;;11.86;71.54;102053.34;5078375;27;46017;-77
2022/05/01 04:55:42;;;;;;;;;21.75;20.25;;;;;11.82;70.99;102040.97;5077979;27;45487;-78
2022/05/01 04:58:08;;;;;;;;;19.50;17.50;;;;;11.95;70.59;102052.09;5078345;27;45384;-77
2022/05/01 05:00:35;;;;;;;;;23.50;20.50;;;;;11.93;70.94;102039.91;5078369;27;45342;-77
2022/05/01 05:03:01;;;;;;;;;24.00;18.25;;;;;12.06;70.13;102061.44;5078072;27;45836;-77
2022/05/01 05:05:28;;;;;;;;;16.00;14.75;;;;;12.02;70.19;102057.78;5078134;27;45418;-77
2022/05/01 05:07:55;;;;;;;;;22.25;19.50;;;;;12.08;70.35;102070.22;5077900;27;45291;-78
2022/05/01 05:10:21;;;;;;;;;23.50;19.00;;;;;12.07;70.62;102071.91;5078943;27;45405;-77
2022/05/01 05:12:49;;;;;;;;;18.50;17.50;;;;;12.03;70.60;102066.44;5078475;28;46145;-77
2022/05/01 05:15:19;;;;;;;;;25.75;21.25;;;;;12.13;70.15;102070.50;5082474;27;45372;-78
2022/05/01 05:17:44;;;;;;;;;20.25;19.25;;;;;12.18;69.75;102077.75;5082906;27;45302;-78
2022/05/01 05:20:11;;;;;;;;;18.00;15.00;;;;;12.14;69.45;102057.59;5082160;27;45223;-77
2022/05/01 05:22:39;;;;;;;;;19.75;16.75;;;;;12.25;69.37;102073.81;5078132;27;46279;-77
2022/05/01 05:25:08;;;;;;;;;19.25;18.00;;;;;12.33;69.51;102076.81;5078092;27;45811;-78
2022/05/01 05:27:34;;;;;;;;;17.50;17.00;;;;;12.34;69.17;102079.53;5077798;28;45465;-77
2022/05/01 05:30:00;;;;;;;;;18.00;17.75;;;;;12.36;68.93;102082.22;5078169;27;45325;-77
2022/05/01 05:32:26;;;;;;;;;19.00;18.50;;;;;12.31;68.65;102081.06;5077803;27;46160;-76
2022/05/01 05:34:51;;;;;;;;;18.75;17.50;;;;;12.31;69.26;102081.06;5077570;27;45401;-77
2022/05/01 05:37:18;;;;;;;;;20.00;19.25;;;;;12.22;69.42;102076.22;5077786;27;45157;-77
2022/05/01 05:39:44;;;;;;;;;21.25;19.00;;;;;12.31;69.16;102079.34;5077685;27;45318;-77
2022/05/01 05:42:10;;;;;;;;;21.75;19.50;;;;;12.38;68.83;102081.47;5077464;27;45935;-76
2022/05/01 05:44:36;;;;;;;;;19.25;17.50;;;;;12.36;68.85;102074.41;5077420;27;45405;-78
2022/05/01 05:47:02;;;;;;;;;21.50;20.25;;;;;12.39;68.67;102070.28;5077693;27;45466;-77
2022/05/01 05:49:28;;;;;;;;;18.25;16.75;;;;;12.41;68.92;102070.41;5077945;27;45326;-78
2022/05/01 05:51:54;;;;;;;;;17.75;16.25;;;;;12.44;69.10;102069.66;5077012;27;45380;-76
2022/05/01 05:54:19;;;;;;;;;14.00;13.75;;;;;12.39;69.10;102061.63;5077361;27;45505;-76
2022/05/01 05:56:45;;;;;;;;;20.75;20.00;;;;;12.47;69.67;102067.25;5075665;27;45358;-77
2022/05/01 05:59:11;;;;;;;;;20.75;19.75;;;;;12.47;69.11;102065.53;5077542;27;45292;-77
2022/05/01 06:01:38;;;;;;;;;22.00;20.25;;;;;12.48;69.10;102069.94;5076002;27;47842;-76
2022/05/01 06:04:04;;;;;;;;;25.00;21.75;;;;;12.47;69.63;102049.06;5078879;27;45296;-77
2022/05/01 06:06:30;;;;;;;;;22.75;21.50;;;;;12.56;69.06;102059.06;5080643;27;45303;-77
2022/05/01 06:08:55;;;;;;;;;22.25;17.50;;;;;12.65;69.18;102067.38;5079270;27;45598;-77
2022/05/01 06:11:21;;;;;;;;;27.25;20.00;;;;;12.70;68.99;102064.25;5078675;27;46039;-77
2022/05/01 06:13:47;;;;;;;;;20.75;20.25;;;;;12.75;68.97;102071.41;5078935;28;45521;-77
2022/05/01 06:16:12;;;;;;;;;23.25;22.25;;;;;12.57;68.29;102034.88;5078682;27;45400;-77
2022/05/01 06:18:38;;;;;;;;;27.75;23.75;;;;;12.76;68.25;102068.88;5077900;27;45526;-77
2022/05/01 06:21:04;;;;;;;;;22.00;20.25;;;;;12.83;68.45;102077.94;5078030;27;45719;-77
2022/05/01 06:23:29;;;;;;;;;26.75;21.75;;;;;12.85;68.67;102077.19;5078210;27;45312;-78
2022/05/01 06:25:55;;;;;;;;;27.25;22.25;;;;;12.83;68.80;102071.03;5077052;27;45393;-77
2022/05/01 06:28:21;;;;;;;;;26.25;26.00;;;;;12.93;69.17;102080.22;5078060;27;45487;-77
2022/05/01 06:30:49;;;;;;;;;26.50;24.00;;;;;13.03;68.61;102079.03;5077703;27;45370;-78
2022/05/01 06:33:20;;;;;;;;;25.25;24.25;;;;;13.04;68.09;102075.63;5078123;28;45822;-77
2022/05/01 06:35:52;;;;;;;;;22.25;21.50;;;;;13.04;67.94;102075.63;5078658;27;45410;-77
2022/05/01 06:38:18;;;;;;;;;25.50;23.50;;;;;13.07;67.69;102067.09;5078732;27;45844;-77
2022/05/01 06:40:44;;;;;;;;;23.00;23.00;;;;;13.11;67.70;102080.34;5076752;27;46012;-77
2022/05/01 06:43:11;;;;;;;;;23.25;22.00;;;;;13.03;67.88;102073.84;5076946;27;45476;-78
2022/05/01 06:45:37;;;;;;;;;31.50;25.50;;;;;13.12;67.69;102092.53;5076868;27;45379;-77
2022/05/01 06:48:03;;;;;;;;;24.00;21.75;;;;;13.13;67.49;102096.94;5078618;27;45484;-77
2022/05/01 06:50:30;;;;;;;;;25.50;21.50;;;;;13.06;67.50;102081.81;5081460;27;45241;-76
2022/05/01 06:52:56;;;;;;;;;26.75;23.75;;;;;13.14;67.84;102088.34;5081854;28;45885;-76
2022/05/01 06:55:25;;;;;;;;;27.25;23.75;;;;;13.19;67.66;102093.78;5076118;27;45397;-76
2022/05/01 06:57:54;;;;;;;;;27.25;23.25;;;;;13.19;67.51;102078.19;5076568;27;45481;-76
2022/05/01 07:00:20;;;;;;;;;25.50;21.00;;;;;13.22;67.62;102069.63;5076420;27;46172;-76
2022/05/01 07:02:47;;;;;;;;;29.00;25.25;;;;;13.31;67.51;102085.75;5074872;28;45357;-78
2022/05/01 07:05:13;;;;;;;;;26.25;23.75;;;;;13.41;67.64;102081.97;5076418;28;45433;-78
2022/05/01 07:07:39;;;;;;;;;31.50;26.50;;;;;13.43;67.67;102073.44;5075973;27;45434;-76
2022/05/01 07:10:06;;;;;;;;;31.50;27.75;;;;;13.56;67.98;102082.78;5076508;27;45374;-80
2022/05/01 07:12:32;;;;;;;;;38.75;31.00;;;;;13.57;67.41;102068.06;5076161;27;45334;-78
2022/05/01 07:14:58;;;;;;;;;28.50;24.75;;;;;13.67;67.95;102085.97;5076212;27;45457;-78
2022/05/01 07:17:23;;;;;;;;;35.00;30.25;;;;;13.72;67.43;102084.47;5074989;27;45553;-77
2022/05/01 07:19:49;;;;;;;;;34.75;30.25;;;;;13.70;67.06;102072.19;5075548;27;46036;-77
2022/05/01 07:22:17;;;;;;;;;35.25;31.50;;;;;13.74;67.21;102072.44;5075813;27;45496;-77
2022/05/01 07:24:42;;;;;;;;;31.00;29.50;;;;;13.76;67.12;102064.72;5075999;28;45652;-77
2022/05/01 07:27:09;;;;;;;;;21.75;20.00;;;;;13.78;66.24;102074.41;5076114;27;45591;-77
2022/05/01 07:29:35;;;;;;;;;36.00;31.75;;;;;13.75;66.55;102070.75;5076002;27;45440;-77
2022/05/01 07:32:01;;;;;;;;;27.75;26.25;;;;;13.72;66.64;102066.25;5074653;27;45734;-77
2022/05/01 07:34:27;;;;;;;;;28.50;26.00;;;;;13.82;66.96;102084.97;5079061;27;45378;-77
2022/05/01 07:36:53;;;;;;;;;32.50;30.50;;;;;13.84;66.90;102080.72;5081685;27;45516;-78
2022/05/01 07:39:18;;;;;;;;;32.25;28.50;;;;;13.88;66.58;102078.34;5076598;27;47680;-78
2022/05/01 07:41:44;;;;;;;;;27.50;25.25;;;;;13.92;66.81;102089.84;5079719;27;45327;-77
2022/05/01 07:44:11;;;;;;;;;34.75;29.75;;;;;13.96;66.63;102083.09;5079781;27;45300;-77
2022/05/01 07:46:38;;;;;;;;;27.75;26.00;;;;;13.88;66.17;102062.72;5080163;27;45338;-77
2022/05/01 07:49:05;;;;;;;;;27.50;25.50;;;;;13.99;66.07;102076.31;5079389;27;46666;-77
2022/05/01 07:51:31;;;;;;;;;30.00;26.75;;;;;13.95;66.34;102066.53;5080213;27;45338;-79
2022/05/01 07:53:58;;;;;;;;;30.25;26.25;;;;;13.98;65.47;102065.84;5079059;27;45254;-77
2022/05/01 07:56:25;;;;;;;;;33.50;29.00;;;;;13.97;65.87;102067.53;5078010;28;45240;-77
2022/05/01 07:58:51;;;;;;;;;32.50;29.25;;;;;13.94;65.78;102062.16;5077326;27;47412;-78
2022/05/01 08:01:17;;;;;;;;;27.00;25.25;;;;;13.91;65.00;102057.69;5078728;27;45855;-78
2022/05/01 08:06:27;;;;;;;;;32.50;29.75;;;;;14.00;64.83;102044.25;5079388;27;45289;-79
2022/05/01 08:08:53;;;;;;;;;31.75;27.25;;;;;14.01;64.68;102040.84;5078550;28;45670;-77
2022/05/01 08:11:19;;;;;;;;;24.00;20.75;;;;;14.13;64.14;102050.97;5078615;27;45451;-78
2022/05/01 08:13:44;;;;;;;;;26.50;22.25;;;;;14.13;63.53;102048.38;5078989;28;45321;-77
2022/05/01 08:16:10;;;;;;;;;32.50;28.75;;;;;14.17;63.90;102044.19;5079236;27;45310;-77
2022/05/01 08:21:21;;;;;;;;;25.00;23.00;;;;;14.34;61.80;102047.63;5085368;28;45446;-78
2022/05/01 08:23:46;;;;;;;;;25.75;24.50;;;;;14.43;61.80;102047.22;5082709;27;45209;-78
2022/05/01 08:26:13;;;;;;;;;23.00;22.50;;;;;14.46;60.95;102035.22;5079867;27;45283;-78
2022/05/01 08:28:41;;;;;;;;;26.25;25.00;;;;;14.57;60.77;102043.56;5077786;27;45410;-78
2022/05/01 08:31:08;;;;;;;;;25.75;24.75;;;;;14.64;60.36;102043.03;5077740;27;45487;-78
2022/05/01 08:33:35;;;;;;;;;28.75;26.25;;;;;14.70;60.13;102045.06;5078983;27;45347;-78
2022/05/01 08:36:04;;;;;;;;;24.00;22.50;;;;;14.74;59.36;102039.16;5078379;27;45314;-79
2022/05/01 08:38:30;;;;;;;;;24.25;21.50;;;;;14.76;58.46;102027.09;5078100;27;46227;-79
2022/05/01 08:40:56;;;;;;;;;26.00;23.75;;;;;14.76;58.45;102019.28;5078019;27;45831;-78
2022/05/01 08:43:23;;;;;;;;;25.75;21.75;;;;;14.88;57.75;102025.91;5078040;27;45496;-79
2022/05/01 08:46:13;;;;;;;;;26.50;24.25;;;;;14.85;57.95;102032.75;5077822;27;45312;-78
2022/05/01 08:48:46;;;;;;;;;27.25;24.00;;;;;14.85;58.25;102032.75;5077350;28;46013;-78
2022/05/01 08:51:14;;;;;;;;;25.50;23.50;;;;;14.79;57.84;102003.78;5077001;27;45819;-77
2022/05/01 08:53:41;;;;;;;;;24.25;22.75;;;;;14.88;57.43;102018.97;5077466;28;45252;-78
2022/05/01 08:56:07;;;;;;;;;25.25;23.50;;;;;14.92;57.33;102018.28;5078167;28;45346;-79
2022/05/01 08:58:34;;;;;;;;;28.75;26.75;;;;;14.98;57.27;102029.03;5076543;27;47584;-78
2022/05/01 09:01:00;;;;;;;;;28.50;27.50;;;;;15.05;57.52;102031.91;5077371;27;45371;-78
2022/05/01 09:03:26;;;;;;;;;25.50;24.00;;;;;15.12;57.05;102021.81;5076313;27;45395;-79
2022/05/01 09:05:52;;;;;;;;;22.25;21.75;;;;;15.13;56.47;102025.31;5076665;27;45239;-79
2022/05/01 09:08:18;;;;;;;;;21.00;19.00;;;;;15.16;56.38;102022.84;5080659;27;45472;-79
2022/05/01 09:10:44;;;;;;;;;25.50;24.50;;;;;15.21;56.48;102029.19;5080672;27;45371;-77
2022/05/01 09:13:11;;;;;;;;;26.00;23.00;;;;;15.26;56.96;102021.56;5082088;27;45271;-78
2022/05/01 09:15:40;;;;;;;;;27.25;25.50;;;;;15.37;56.78;102024.63;5081003;27;45500;-78
2022/05/01 09:18:10;;;;;;;;;28.50;26.75;;;;;15.45;56.58;102015.41;5078148;27;45605;-78
2022/05/01 09:20:56;;;;;;;;;23.25;22.75;;;;;15.54;56.35;102018.47;5078042;28;45590;-78
2022/05/01 09:23:42;;;;;;;;;26.00;22.75;;;;;15.60;54.48;102008.28;5075911;27;45401;-78
2022/05/01 09:26:09;;;;;;;;;25.75;25.25;;;;;15.70;55.22;102004.34;5078160;27;45366;-77
2022/05/01 09:28:37;;;;;;;;;26.00;24.50;;;;;15.83;54.93;102002.25;5077564;28;46132;-77
2022/05/01 09:31:03;;;;;;;;;26.75;23.25;;;;;15.94;54.69;102014.97;5077370;28;45753;-76
2022/05/01 09:33:30;;;;;;;;;25.00;22.00;;;;;16.02;52.52;101999.63;5077433;27;45379;-77
2022/05/01 09:35:56;;;;;;;;;21.75;20.25;;;;;16.09;52.17;102000.75;5093443;27;45548;-77
2022/05/01 09:38:26;;;;;;;;;26.25;22.75;;;;;16.19;52.07;101997.72;5077407;27;45385;-78
2022/05/01 09:41:01;;;;;;;;;29.00;25.25;;;;;16.28;52.23;101998.91;5076557;27;45368;-78
2022/05/01 09:43:44;;;;;;;;;23.25;22.00;;;;;16.20;52.14;101972.47;5077400;27;45454;-78
2022/05/01 09:46:17;;;;;;;;;25.50;24.00;;;;;16.35;52.25;101999.22;5077502;27;45393;-78
2022/05/01 09:49:04;;;;;;;;;25.75;22.50;;;;;16.38;52.46;101986.25;5076437;27;45525;-78
2022/05/01 09:51:35;;;;;;;;;25.75;22.25;;;;;16.49;52.70;101996.25;5077415;27;45403;-78
2022/05/01 09:54:03;;;;;;;;;26.25;25.25;;;;;16.63;50.13;101989.84;5077775;27;45617;-78
2022/05/01 09:56:46;;;;;;;;;30.00;28.75;;;;;16.73;51.42;101984.97;5083263;27;45298;-78
2022/05/01 09:59:12;;;;;;;;;21.00;20.25;;;;;16.85;49.08;101988.94;5080537;28;45415;-77
2022/05/01 10:01:38;;;;;;;;;17.00;17.00;;;;;16.86;47.63;101980.25;5077799;27;45846;-77
2022/05/01 10:04:04;;;;;;;;;19.75;19.75;;;;;16.92;48.69;101983.94;5076589;27;45406;-78
2022/05/01 10:06:31;;;;;;;;;20.75;18.75;;;;;16.96;48.54;101971.06;5078186;28;45338;-77
2022/05/01 10:08:58;;;;;;;;;19.75;19.25;;;;;17.04;47.44;101981.81;5076662;27;45537;-79
2022/05/01 10:11:29;;;;;;;;;22.50;19.25;;;;;17.12;47.75;101974.22;5076049;27;45737;-77
2022/05/01 10:13:55;;;;;;;;;19.00;18.50;;;;;17.21;46.72;101971.06;5076633;27;45342;-79
2022/05/01 10:16:21;;;;;;;;;19.25;18.50;;;;;17.29;47.23;101967.91;5076953;27;45640;-81
2022/05/01 10:18:47;;;;;;;;;20.50;18.25;;;;;17.29;44.90;101946.06;5076160;27;45380;-78
2022/05/01 10:21:13;;;;;;;;;17.75;15.25;;;;;17.47;44.46;101964.13;5076352;27;45276;-78
2022/05/01 10:23:40;;;;;;;;;15.50;14.00;;;;;17.54;44.85;101960.91;5076874;27;45307;-78
2022/05/01 10:26:16;;;;;;;;;20.25;18.00;;;;;17.65;44.28;101963.88;5077177;27;45431;-79
2022/05/01 10:28:50;;;;;;;;;15.75;15.00;;;;;17.73;44.35;101956.28;5074972;27;48013;-78
2022/05/01 10:34:19;;;;;;;;;18.25;15.25;;;;;17.90;43.39;101942.00;5076618;27;45330;-78
2022/05/01 10:37:07;;;;;;;;;13.75;13.50;;;;;17.97;43.58;101942.28;5076613;27;45599;-79
2022/05/01 10:39:37;;;;;;;;;16.00;16.00;;;;;18.06;42.29;101943.44;5076807;27;45476;-77
2022/05/01 10:42:04;;;;;;;;;20.00;19.25;;;;;18.18;41.91;101937.72;5076985;27;45832;-78
2022/05/01 10:44:33;;;;;;;;;19.75;14.00;;;;;18.28;41.48;101933.63;5082746;27;45211;-78
2022/05/01 10:47:13;;;;;;;;;16.75;14.25;;;;;18.39;40.78;101926.97;5081793;27;45223;-78
2022/05/01 10:49:44;;;;;;;;;13.25;11.75;;;;;18.45;41.18;101917.53;5078465;27;45413;-77
2022/05/01 10:52:15;;;;;;;;;11.25;10.75;;;;;18.50;40.63;101908.06;5076944;27;45398;-77
2022/05/01 10:54:46;;;;;;;;;16.25;13.25;;;;;18.54;40.15;101913.44;5076665;27;45446;-78
2022/05/01 10:57:13;;;;;;;;;13.75;11.00;;;;;18.55;40.02;101914.34;5076767;27;45448;-77
2022/05/01 10:59:46;;;;;;;;;14.75;13.00;;;;;18.64;40.71;101913.69;5076689;27;45752;-77
2022/05/01 11:02:30;;;;;;;;;14.50;13.00;;;;;18.68;40.56;101903.34;5077133;28;45785;-78
2022/05/01 11:04:57;;;;;;;;;14.25;11.75;;;;;18.78;39.95;101901.88;5076761;27;45397;-79
2022/05/01 11:07:25;;;;;;;;;12.75;11.00;;;;;18.79;39.25;101913.28;5075196;27;45374;-77
2022/05/01 11:09:51;;;;;;;;;21.00;18.00;;;;;18.79;40.38;101908.03;5075872;27;45947;-77
2022/05/01 11:12:22;;;;;;;;;17.25;15.00;;;;;18.77;40.08;101884.38;5076486;27;45326;-78
2022/05/01 11:14:55;;;;;;;;;17.50;12.25;;;;;18.80;39.53;101902.81;5075663;27;45369;-77
2022/05/01 11:17:51;;;;;;;;;15.50;15.50;;;;;18.69;39.08;101899.00;5076328;27;45540;-78
2022/05/01 11:20:21;;;;;;;;;15.75;12.00;;;;;18.62;39.61;101895.31;5066333;28;46929;-78
2022/05/01 11:22:47;;;;;;;;;13.75;12.50;;;;;18.56;39.82;101885.53;5075904;27;45909;-79
2022/05/01 11:25:36;;;;;;;;;13.50;12.50;;;;;18.48;39.60;101886.13;5076505;27;45495;-79